sensor_id;sensor_type;location;lat;lon;timestamp;P1;durP1;ratioP1;P2;durP2;ratioP2
11054;SDS011;5580;50.106;8.702;2023-09-18T00:01:05;14.13;;;7.70;;
11054;SDS011;5580;50.106;8.702;2023-09-18T00:03:33;14.20;;;7.43;;
11054;SDS011;5580;50.106;8.702;2023-09-18T00:05:59;16.10;;;7.70;;
11054;SDS011;5580;50.106;8.702;2023-09-18T00:08:25;12.57;;;7.23;;
11054;SDS011;5580;50.106;8.702;2023-09-18T00:10:54;14.63;;;7.70;;
11054;SDS011;5580;50.106;8.702;2023-09-18T00:13:21;16.50;;;8.37;;
11054;SDS011;5580;50.106;8.702;2023-09-18T00:15:47;12.53;;;7.37;;
11054;SDS011;5580;50.106;8.702;2023-09-18T00:18:14;13.97;;;7.83;;
11054;SDS011;5580;50.106;8.702;2023-09-18T00:20:41;14.50;;;7.87;;
11054;SDS011;5580;50.106;8.702;2023-09-18T00:23:07;14.80;;;7.67;;
11054;SDS011;5580;50.106;8.702;2023-09-18T00:25:34;13.37;;;7.90;;
11054;SDS011;5580;50.106;8.702;2023-09-18T00:27:59;13.77;;;8.20;;
11054;SDS011;5580;50.106;8.702;2023-09-18T00:30:25;12.77;;;7.63;;
11054;SDS011;5580;50.106;8.702;2023-09-18T00:32:51;14.93;;;8.10;;
11054;SDS011;5580;50.106;8.702;2023-09-18T00:35:17;15.17;;;7.73;;
11054;SDS011;5580;50.106;8.702;2023-09-18T00:37:43;13.67;;;8.23;;
11054;SDS011;5580;50.106;8.702;2023-09-18T00:40:08;15.33;;;7.70;;
11054;SDS011;5580;50.106;8.702;2023-09-18T00:42:36;15.60;;;8.40;;
11054;SDS011;5580;50.106;8.702;2023-09-18T00:45:01;13.93;;;8.00;;
11054;SDS011;5580;50.106;8.702;2023-09-18T00:47:27;13.30;;;7.93;;
11054;SDS011;5580;50.106;8.702;2023-09-18T00:49:53;14.10;;;8.27;;
11054;SDS011;5580;50.106;8.702;2023-09-18T00:52:20;16.53;;;8.80;;
11054;SDS011;5580;50.106;8.702;2023-09-18T00:54:47;14.37;;;8.00;;
11054;SDS011;5580;50.106;8.702;2023-09-18T00:57:14;14.13;;;8.30;;
11054;SDS011;5580;50.106;8.702;2023-09-18T00:59:39;16.77;;;8.77;;
11054;SDS011;5580;50.106;8.702;2023-09-18T01:02:05;12.57;;;8.30;;
11054;SDS011;5580;50.106;8.702;2023-09-18T01:04:32;14.93;;;8.60;;
11054;SDS011;5580;50.106;8.702;2023-09-18T01:06:59;14.70;;;7.93;;
11054;SDS011;5580;50.106;8.702;2023-09-18T01:09:28;13.37;;;8.00;;
11054;SDS011;5580;50.106;8.702;2023-09-18T01:17:42;11.50;;;7.50;;
11054;SDS011;5580;50.106;8.702;2023-09-18T01:20:09;13.57;;;7.73;;
11054;SDS011;5580;50.106;8.702;2023-09-18T01:22:36;11.83;;;7.73;;
11054;SDS011;5580;50.106;8.702;2023-09-18T01:25:01;16.50;;;8.03;;
11054;SDS011;5580;50.106;8.702;2023-09-18T01:27:27;13.20;;;7.80;;
11054;SDS011;5580;50.106;8.702;2023-09-18T01:29:53;13.00;;;7.93;;
11054;SDS011;5580;50.106;8.702;2023-09-18T01:32:19;12.43;;;8.00;;
11054;SDS011;5580;50.106;8.702;2023-09-18T01:34:50;13.23;;;7.83;;
11054;SDS011;5580;50.106;8.702;2023-09-18T01:37:21;11.77;;;7.40;;
11054;SDS011;5580;50.106;8.702;2023-09-18T01:39:50;12.10;;;8.20;;
11054;SDS011;5580;50.106;8.702;2023-09-18T01:42:16;13.13;;;7.60;;
11054;SDS011;5580;50.106;8.702;2023-09-18T01:44:44;13.20;;;7.80;;
11054;SDS011;5580;50.106;8.702;2023-09-18T01:47:12;12.03;;;7.93;;
11054;SDS011;5580;50.106;8.702;2023-09-18T01:49:41;13.87;;;7.57;;
11054;SDS011;5580;50.106;8.702;2023-09-18T01:52:07;14.40;;;7.27;;
11054;SDS011;5580;50.106;8.702;2023-09-18T01:54:34;13.23;;;8.00;;
11054;SDS011;5580;50.106;8.702;2023-09-18T01:57:00;12.23;;;7.90;;
11054;SDS011;5580;50.106;8.702;2023-09-18T01:59:26;13.10;;;7.97;;
11054;SDS011;5580;50.106;8.702;2023-09-18T02:01:52;13.43;;;7.83;;
11054;SDS011;5580;50.106;8.702;2023-09-18T02:04:18;14.60;;;7.97;;
11054;SDS011;5580;50.106;8.702;2023-09-18T02:06:45;11.87;;;7.73;;
11054;SDS011;5580;50.106;8.702;2023-09-18T02:09:12;14.90;;;7.97;;
11054;SDS011;5580;50.106;8.702;2023-09-18T02:11:38;10.60;;;6.97;;
11054;SDS011;5580;50.106;8.702;2023-09-18T02:14:05;15.30;;;8.10;;
11054;SDS011;5580;50.106;8.702;2023-09-18T02:16:35;14.40;;;7.60;;
11054;SDS011;5580;50.106;8.702;2023-09-18T02:19:02;12.27;;;7.73;;
11054;SDS011;5580;50.106;8.702;2023-09-18T02:21:29;13.10;;;8.20;;
11054;SDS011;5580;50.106;8.702;2023-09-18T02:23:55;11.63;;;7.87;;
11054;SDS011;5580;50.106;8.702;2023-09-18T02:26:21;15.80;;;8.80;;
11054;SDS011;5580;50.106;8.702;2023-09-18T02:28:48;15.30;;;8.10;;
11054;SDS011;5580;50.106;8.702;2023-09-18T02:31:14;16.60;;;7.83;;
11054;SDS011;5580;50.106;8.702;2023-09-18T02:33:40;13.43;;;7.73;;
11054;SDS011;5580;50.106;8.702;2023-09-18T02:36:06;15.83;;;7.80;;
11054;SDS011;5580;50.106;8.702;2023-09-18T02:38:32;18.13;;;8.50;;
11054;SDS011;5580;50.106;8.702;2023-09-18T02:40:59;14.53;;;7.90;;
11054;SDS011;5580;50.106;8.702;2023-09-18T02:43:25;13.80;;;7.90;;
11054;SDS011;5580;50.106;8.702;2023-09-18T02:45:50;12.30;;;7.63;;
11054;SDS011;5580;50.106;8.702;2023-09-18T02:48:16;12.30;;;7.70;;
11054;SDS011;5580;50.106;8.702;2023-09-18T02:50:42;11.67;;;7.80;;
11054;SDS011;5580;50.106;8.702;2023-09-18T02:53:12;13.43;;;7.70;;
11054;SDS011;5580;50.106;8.702;2023-09-18T02:55:51;13.40;;;7.80;;
11054;SDS011;5580;50.106;8.702;2023-09-18T02:58:17;12.07;;;7.87;;
11054;SDS011;5580;50.106;8.702;2023-09-18T03:00:47;14.50;;;7.90;;
11054;SDS011;5580;50.106;8.702;2023-09-18T03:03:14;13.67;;;8.50;;
11054;SDS011;5580;50.106;8.702;2023-09-18T03:05:41;15.13;;;8.40;;
11054;SDS011;5580;50.106;8.702;2023-09-18T03:08:08;13.13;;;7.80;;
11054;SDS011;5580;50.106;8.702;2023-09-18T03:10:34;13.83;;;8.00;;
11054;SDS011;5580;50.106;8.702;2023-09-18T03:13:04;12.33;;;7.80;;
11054;SDS011;5580;50.106;8.702;2023-09-18T03:15:30;13.00;;;7.77;;
11054;SDS011;5580;50.106;8.702;2023-09-18T03:17:56;13.87;;;7.60;;
11054;SDS011;5580;50.106;8.702;2023-09-18T03:20:26;15.43;;;8.20;;
11054;SDS011;5580;50.106;8.702;2023-09-18T03:22:53;16.80;;;8.23;;
11054;SDS011;5580;50.106;8.702;2023-09-18T03:25:20;13.80;;;7.50;;
11054;SDS011;5580;50.106;8.702;2023-09-18T03:27:46;17.03;;;7.97;;
11054;SDS011;5580;50.106;8.702;2023-09-18T03:30:12;11.20;;;7.43;;
11054;SDS011;5580;50.106;8.702;2023-09-18T03:32:40;13.40;;;7.90;;
11054;SDS011;5580;50.106;8.702;2023-09-18T03:35:06;13.80;;;8.50;;
11054;SDS011;5580;50.106;8.702;2023-09-18T03:37:34;14.77;;;8.40;;
11054;SDS011;5580;50.106;8.702;2023-09-18T03:39:59;15.93;;;8.23;;
11054;SDS011;5580;50.106;8.702;2023-09-18T03:42:25;17.23;;;8.10;;
11054;SDS011;5580;50.106;8.702;2023-09-18T03:44:51;20.23;;;9.30;;
11054;SDS011;5580;50.106;8.702;2023-09-18T03:47:16;14.07;;;9.03;;
11054;SDS011;5580;50.106;8.702;2023-09-18T03:49:42;15.60;;;8.67;;
11054;SDS011;5580;50.106;8.702;2023-09-18T03:52:07;13.97;;;7.93;;
11054;SDS011;5580;50.106;8.702;2023-09-18T03:54:33;12.97;;;7.90;;
11054;SDS011;5580;50.106;8.702;2023-09-18T03:56:59;15.53;;;8.37;;
11054;SDS011;5580;50.106;8.702;2023-09-18T03:59:25;14.77;;;8.80;;
11054;SDS011;5580;50.106;8.702;2023-09-18T04:01:50;19.53;;;10.03;;
11054;SDS011;5580;50.106;8.702;2023-09-18T04:04:16;21.03;;;10.17;;
11054;SDS011;5580;50.106;8.702;2023-09-18T04:06:42;20.10;;;10.03;;
11054;SDS011;5580;50.106;8.702;2023-09-18T04:09:10;18.60;;;9.37;;
11054;SDS011;5580;50.106;8.702;2023-09-18T04:11:35;17.93;;;9.33;;
11054;SDS011;5580;50.106;8.702;2023-09-18T04:14:01;14.30;;;8.27;;
11054;SDS011;5580;50.106;8.702;2023-09-18T04:16:30;14.57;;;8.40;;
11054;SDS011;5580;50.106;8.702;2023-09-18T04:19:02;17.33;;;8.47;;
11054;SDS011;5580;50.106;8.702;2023-09-18T04:21:28;13.70;;;8.07;;
11054;SDS011;5580;50.106;8.702;2023-09-18T04:23:56;14.83;;;8.23;;
11054;SDS011;5580;50.106;8.702;2023-09-18T04:26:24;13.23;;;7.77;;
11054;SDS011;5580;50.106;8.702;2023-09-18T04:28:54;21.73;;;7.77;;
11054;SDS011;5580;50.106;8.702;2023-09-18T04:31:20;12.67;;;7.80;;
11054;SDS011;5580;50.106;8.702;2023-09-18T04:33:46;12.20;;;7.37;;
11054;SDS011;5580;50.106;8.702;2023-09-18T04:36:11;16.30;;;7.83;;
11054;SDS011;5580;50.106;8.702;2023-09-18T04:38:37;13.77;;;7.83;;
11054;SDS011;5580;50.106;8.702;2023-09-18T04:41:03;13.43;;;8.13;;
11054;SDS011;5580;50.106;8.702;2023-09-18T04:43:28;14.73;;;7.90;;
11054;SDS011;5580;50.106;8.702;2023-09-18T04:45:55;14.27;;;8.03;;
11054;SDS011;5580;50.106;8.702;2023-09-18T04:48:21;16.10;;;8.07;;
11054;SDS011;5580;50.106;8.702;2023-09-18T04:50:47;13.63;;;7.53;;
11054;SDS011;5580;50.106;8.702;2023-09-18T04:53:14;12.83;;;7.13;;
11054;SDS011;5580;50.106;8.702;2023-09-18T04:55:39;14.03;;;7.50;;
11054;SDS011;5580;50.106;8.702;2023-09-18T04:58:05;14.03;;;7.70;;
11054;SDS011;5580;50.106;8.702;2023-09-18T05:00:31;14.47;;;7.20;;
11054;SDS011;5580;50.106;8.702;2023-09-18T05:02:58;14.43;;;7.87;;
11054;SDS011;5580;50.106;8.702;2023-09-18T05:05:28;14.93;;;7.10;;
11054;SDS011;5580;50.106;8.702;2023-09-18T05:07:54;16.27;;;8.00;;
11054;SDS011;5580;50.106;8.702;2023-09-18T05:10:20;13.60;;;7.30;;
11054;SDS011;5580;50.106;8.702;2023-09-18T05:12:45;15.57;;;7.40;;
11054;SDS011;5580;50.106;8.702;2023-09-18T05:15:11;15.03;;;7.40;;
11054;SDS011;5580;50.106;8.702;2023-09-18T05:17:42;15.00;;;7.70;;
11054;SDS011;5580;50.106;8.702;2023-09-18T05:20:10;14.23;;;7.40;;
11054;SDS011;5580;50.106;8.702;2023-09-18T05:22:41;13.00;;;7.50;;
11054;SDS011;5580;50.106;8.702;2023-09-18T05:25:08;13.33;;;7.23;;
11054;SDS011;5580;50.106;8.702;2023-09-18T05:27:35;15.17;;;7.67;;
11054;SDS011;5580;50.106;8.702;2023-09-18T05:30:09;14.20;;;7.40;;
11054;SDS011;5580;50.106;8.702;2023-09-18T05:32:37;17.83;;;7.53;;
11054;SDS011;5580;50.106;8.702;2023-09-18T05:35:02;13.23;;;7.20;;
11054;SDS011;5580;50.106;8.702;2023-09-18T05:37:31;13.53;;;6.90;;
11054;SDS011;5580;50.106;8.702;2023-09-18T05:39:57;14.27;;;7.53;;
11054;SDS011;5580;50.106;8.702;2023-09-18T05:42:23;13.23;;;7.17;;
11054;SDS011;5580;50.106;8.702;2023-09-18T05:44:48;16.80;;;7.00;;
11054;SDS011;5580;50.106;8.702;2023-09-18T05:47:14;15.13;;;6.70;;
11054;SDS011;5580;50.106;8.702;2023-09-18T05:49:40;15.83;;;6.60;;
11054;SDS011;5580;50.106;8.702;2023-09-18T05:52:05;17.50;;;6.60;;
11054;SDS011;5580;50.106;8.702;2023-09-18T05:54:31;16.97;;;6.13;;
11054;SDS011;5580;50.106;8.702;2023-09-18T05:56:57;13.17;;;6.23;;
11054;SDS011;5580;50.106;8.702;2023-09-18T05:59:22;16.53;;;6.60;;
11054;SDS011;5580;50.106;8.702;2023-09-18T06:01:48;12.37;;;5.97;;
11054;SDS011;5580;50.106;8.702;2023-09-18T06:04:14;14.33;;;6.37;;
11054;SDS011;5580;50.106;8.702;2023-09-18T06:06:41;14.50;;;6.37;;
11054;SDS011;5580;50.106;8.702;2023-09-18T06:09:07;15.50;;;6.40;;
11054;SDS011;5580;50.106;8.702;2023-09-18T06:11:33;15.77;;;6.37;;
11054;SDS011;5580;50.106;8.702;2023-09-18T06:13:59;14.73;;;6.43;;
11054;SDS011;5580;50.106;8.702;2023-09-18T06:16:25;18.87;;;6.00;;
11054;SDS011;5580;50.106;8.702;2023-09-18T06:18:50;15.87;;;6.33;;
11054;SDS011;5580;50.106;8.702;2023-09-18T06:21:16;15.50;;;6.43;;
11054;SDS011;5580;50.106;8.702;2023-09-18T06:23:42;13.67;;;6.20;;
11054;SDS011;5580;50.106;8.702;2023-09-18T06:26:08;14.90;;;6.23;;
11054;SDS011;5580;50.106;8.702;2023-09-18T06:28:33;16.20;;;6.63;;
11054;SDS011;5580;50.106;8.702;2023-09-18T06:30:59;14.13;;;6.27;;
11054;SDS011;5580;50.106;8.702;2023-09-18T06:33:24;17.03;;;6.53;;
11054;SDS011;5580;50.106;8.702;2023-09-18T06:35:50;18.67;;;6.63;;
11054;SDS011;5580;50.106;8.702;2023-09-18T06:38:17;14.70;;;6.13;;
11054;SDS011;5580;50.106;8.702;2023-09-18T06:40:42;17.90;;;6.53;;
11054;SDS011;5580;50.106;8.702;2023-09-18T06:43:08;17.30;;;6.13;;
11054;SDS011;5580;50.106;8.702;2023-09-18T06:45:33;14.60;;;6.10;;
11054;SDS011;5580;50.106;8.702;2023-09-18T06:47:59;14.33;;;5.90;;
11054;SDS011;5580;50.106;8.702;2023-09-18T06:50:28;15.23;;;6.00;;
11054;SDS011;5580;50.106;8.702;2023-09-18T06:52:53;14.60;;;6.27;;
11054;SDS011;5580;50.106;8.702;2023-09-18T06:55:19;17.20;;;5.73;;
11054;SDS011;5580;50.106;8.702;2023-09-18T06:57:44;15.13;;;6.27;;
11054;SDS011;5580;50.106;8.702;2023-09-18T07:00:11;15.27;;;5.77;;
11054;SDS011;5580;50.106;8.702;2023-09-18T07:02:39;16.47;;;5.60;;
11054;SDS011;5580;50.106;8.702;2023-09-18T07:05:05;20.23;;;6.50;;
11054;SDS011;5580;50.106;8.702;2023-09-18T07:07:31;15.60;;;5.90;;
11054;SDS011;5580;50.106;8.702;2023-09-18T07:09:57;17.00;;;6.43;;
11054;SDS011;5580;50.106;8.702;2023-09-18T07:12:22;13.73;;;5.60;;
11054;SDS011;5580;50.106;8.702;2023-09-18T07:14:49;20.33;;;5.87;;
11054;SDS011;5580;50.106;8.702;2023-09-18T07:17:14;17.10;;;6.00;;
11054;SDS011;5580;50.106;8.702;2023-09-18T07:19:41;18.20;;;6.03;;
11054;SDS011;5580;50.106;8.702;2023-09-18T07:22:06;14.40;;;5.97;;
11054;SDS011;5580;50.106;8.702;2023-09-18T07:24:32;15.43;;;5.93;;
11054;SDS011;5580;50.106;8.702;2023-09-18T07:26:57;20.07;;;6.23;;
11054;SDS011;5580;50.106;8.702;2023-09-18T07:29:23;15.67;;;5.77;;
11054;SDS011;5580;50.106;8.702;2023-09-18T07:31:52;12.50;;;5.50;;
11054;SDS011;5580;50.106;8.702;2023-09-18T07:34:17;13.50;;;5.67;;
11054;SDS011;5580;50.106;8.702;2023-09-18T07:36:43;13.80;;;5.57;;
11054;SDS011;5580;50.106;8.702;2023-09-18T07:39:12;13.67;;;6.03;;
11054;SDS011;5580;50.106;8.702;2023-09-18T07:41:37;18.00;;;6.00;;
11054;SDS011;5580;50.106;8.702;2023-09-18T07:44:04;15.13;;;5.90;;
11054;SDS011;5580;50.106;8.702;2023-09-18T07:46:30;15.70;;;5.93;;
11054;SDS011;5580;50.106;8.702;2023-09-18T07:48:55;14.93;;;5.50;;
11054;SDS011;5580;50.106;8.702;2023-09-18T07:51:21;14.77;;;5.70;;
11054;SDS011;5580;50.106;8.702;2023-09-18T07:53:47;13.30;;;5.50;;
11054;SDS011;5580;50.106;8.702;2023-09-18T07:56:13;16.57;;;5.87;;
11054;SDS011;5580;50.106;8.702;2023-09-18T07:58:38;13.83;;;5.70;;
11054;SDS011;5580;50.106;8.702;2023-09-18T08:01:05;16.67;;;5.90;;
11054;SDS011;5580;50.106;8.702;2023-09-18T08:03:31;13.30;;;5.27;;
11054;SDS011;5580;50.106;8.702;2023-09-18T08:05:58;15.20;;;5.80;;
11054;SDS011;5580;50.106;8.702;2023-09-18T08:08:23;17.20;;;5.80;;
11054;SDS011;5580;50.106;8.702;2023-09-18T08:10:50;15.87;;;5.77;;
11054;SDS011;5580;50.106;8.702;2023-09-18T08:13:16;15.27;;;5.73;;
11054;SDS011;5580;50.106;8.702;2023-09-18T08:15:42;13.43;;;5.50;;
11054;SDS011;5580;50.106;8.702;2023-09-18T08:18:09;15.80;;;5.70;;
11054;SDS011;5580;50.106;8.702;2023-09-18T08:20:36;18.93;;;5.77;;
11054;SDS011;5580;50.106;8.702;2023-09-18T08:23:09;16.87;;;5.80;;
11054;SDS011;5580;50.106;8.702;2023-09-18T08:25:35;13.70;;;5.47;;
11054;SDS011;5580;50.106;8.702;2023-09-18T08:28:00;14.37;;;5.63;;
11054;SDS011;5580;50.106;8.702;2023-09-18T08:30:27;15.97;;;5.47;;
11054;SDS011;5580;50.106;8.702;2023-09-18T08:32:52;16.70;;;5.37;;
11054;SDS011;5580;50.106;8.702;2023-09-18T08:35:18;14.40;;;5.63;;
11054;SDS011;5580;50.106;8.702;2023-09-18T08:37:43;12.60;;;5.30;;
11054;SDS011;5580;50.106;8.702;2023-09-18T08:40:10;16.73;;;5.33;;
11054;SDS011;5580;50.106;8.702;2023-09-18T08:42:45;11.83;;;5.10;;
11054;SDS011;5580;50.106;8.702;2023-09-18T08:45:14;16.33;;;5.17;;
11054;SDS011;5580;50.106;8.702;2023-09-18T08:47:55;12.47;;;4.97;;
11054;SDS011;5580;50.106;8.702;2023-09-18T08:50:21;9.83;;;4.33;;
11054;SDS011;5580;50.106;8.702;2023-09-18T08:52:48;13.90;;;5.10;;
11054;SDS011;5580;50.106;8.702;2023-09-18T08:55:15;13.73;;;5.03;;
11054;SDS011;5580;50.106;8.702;2023-09-18T08:57:42;15.83;;;4.77;;
11054;SDS011;5580;50.106;8.702;2023-09-18T09:00:10;11.80;;;4.90;;
11054;SDS011;5580;50.106;8.702;2023-09-18T09:02:41;16.50;;;5.27;;
11054;SDS011;5580;50.106;8.702;2023-09-18T09:05:10;15.13;;;4.90;;
11054;SDS011;5580;50.106;8.702;2023-09-18T09:07:37;14.37;;;4.90;;
11054;SDS011;5580;50.106;8.702;2023-09-18T09:10:03;8.73;;;4.30;;
11054;SDS011;5580;50.106;8.702;2023-09-18T09:15:14;14.00;;;4.80;;
11054;SDS011;5580;50.106;8.702;2023-09-18T09:17:41;12.80;;;4.70;;
11054;SDS011;5580;50.106;8.702;2023-09-18T09:20:12;14.00;;;5.30;;
11054;SDS011;5580;50.106;8.702;2023-09-18T09:22:40;9.60;;;4.50;;
11054;SDS011;5580;50.106;8.702;2023-09-18T09:27:48;12.20;;;4.57;;
11054;SDS011;5580;50.106;8.702;2023-09-18T09:30:18;17.90;;;4.57;;
11054;SDS011;5580;50.106;8.702;2023-09-18T09:32:47;11.73;;;4.73;;
11054;SDS011;5580;50.106;8.702;2023-09-18T09:35:34;12.83;;;4.80;;
11054;SDS011;5580;50.106;8.702;2023-09-18T09:38:06;13.53;;;4.63;;
11054;SDS011;5580;50.106;8.702;2023-09-18T09:40:33;14.67;;;4.97;;
11054;SDS011;5580;50.106;8.702;2023-09-18T09:43:00;13.13;;;4.80;;
11054;SDS011;5580;50.106;8.702;2023-09-18T09:45:30;15.20;;;4.87;;
11054;SDS011;5580;50.106;8.702;2023-09-18T09:48:01;14.83;;;4.80;;
11054;SDS011;5580;50.106;8.702;2023-09-18T09:50:57;12.93;;;4.50;;
11054;SDS011;5580;50.106;8.702;2023-09-18T09:53:43;9.23;;;4.07;;
11054;SDS011;5580;50.106;8.702;2023-09-18T09:56:12;13.97;;;4.37;;
11054;SDS011;5580;50.106;8.702;2023-09-18T09:58:39;12.47;;;4.47;;
11054;SDS011;5580;50.106;8.702;2023-09-18T10:01:09;11.20;;;4.20;;
11054;SDS011;5580;50.106;8.702;2023-09-18T10:03:42;14.27;;;4.20;;
11054;SDS011;5580;50.106;8.702;2023-09-18T10:06:09;11.07;;;4.40;;
11054;SDS011;5580;50.106;8.702;2023-09-18T10:08:38;12.83;;;4.30;;
11054;SDS011;5580;50.106;8.702;2023-09-18T10:11:08;12.33;;;4.07;;
11054;SDS011;5580;50.106;8.702;2023-09-18T10:13:49;7.37;;;3.80;;
11054;SDS011;5580;50.106;8.702;2023-09-18T10:16:21;10.80;;;3.90;;
11054;SDS011;5580;50.106;8.702;2023-09-18T10:21:41;10.10;;;4.00;;
11054;SDS011;5580;50.106;8.702;2023-09-18T10:24:16;7.07;;;3.87;;
11054;SDS011;5580;50.106;8.702;2023-09-18T10:29:22;9.03;;;3.90;;
11054;SDS011;5580;50.106;8.702;2023-09-18T10:31:50;9.67;;;3.70;;
11054;SDS011;5580;50.106;8.702;2023-09-18T10:34:17;8.00;;;3.60;;
11054;SDS011;5580;50.106;8.702;2023-09-18T10:36:44;13.37;;;4.30;;
11054;SDS011;5580;50.106;8.702;2023-09-18T10:39:12;10.70;;;4.10;;
11054;SDS011;5580;50.106;8.702;2023-09-18T10:41:38;7.07;;;3.43;;
11054;SDS011;5580;50.106;8.702;2023-09-18T10:44:06;7.17;;;3.00;;
11054;SDS011;5580;50.106;8.702;2023-09-18T10:46:33;11.20;;;3.60;;
11054;SDS011;5580;50.106;8.702;2023-09-18T10:48:59;7.87;;;3.07;;
11054;SDS011;5580;50.106;8.702;2023-09-18T10:51:25;5.93;;;3.03;;
11054;SDS011;5580;50.106;8.702;2023-09-18T10:53:52;5.53;;;3.07;;
11054;SDS011;5580;50.106;8.702;2023-09-18T10:56:21;9.87;;;3.47;;
11054;SDS011;5580;50.106;8.702;2023-09-18T10:58:48;7.07;;;2.90;;
11054;SDS011;5580;50.106;8.702;2023-09-18T11:01:23;5.77;;;3.10;;
11054;SDS011;5580;50.106;8.702;2023-09-18T11:03:52;6.33;;;3.03;;
11054;SDS011;5580;50.106;8.702;2023-09-18T11:06:18;6.63;;;3.10;;
11054;SDS011;5580;50.106;8.702;2023-09-18T11:08:47;6.60;;;3.10;;
11054;SDS011;5580;50.106;8.702;2023-09-18T11:11:16;6.93;;;2.93;;
11054;SDS011;5580;50.106;8.702;2023-09-18T11:13:45;8.97;;;3.10;;
11054;SDS011;5580;50.106;8.702;2023-09-18T11:16:19;4.97;;;3.20;;
11054;SDS011;5580;50.106;8.702;2023-09-18T11:21:25;5.60;;;3.10;;
11054;SDS011;5580;50.106;8.702;2023-09-18T11:24:01;5.37;;;2.87;;
11054;SDS011;5580;50.106;8.702;2023-09-18T11:28:59;6.73;;;3.17;;
11054;SDS011;5580;50.106;8.702;2023-09-18T11:34:20;5.97;;;3.30;;
11054;SDS011;5580;50.106;8.702;2023-09-18T11:36:47;5.63;;;3.13;;
11054;SDS011;5580;50.106;8.702;2023-09-18T11:39:13;8.10;;;3.60;;
11054;SDS011;5580;50.106;8.702;2023-09-18T11:42:06;10.10;;;3.20;;
11054;SDS011;5580;50.106;8.702;2023-09-18T11:44:32;6.53;;;3.20;;
11054;SDS011;5580;50.106;8.702;2023-09-18T11:46:58;6.23;;;3.17;;
11054;SDS011;5580;50.106;8.702;2023-09-18T11:49:25;7.07;;;3.10;;
11054;SDS011;5580;50.106;8.702;2023-09-18T11:51:53;7.03;;;3.03;;
11054;SDS011;5580;50.106;8.702;2023-09-18T11:54:23;6.93;;;3.00;;
11054;SDS011;5580;50.106;8.702;2023-09-18T11:56:49;4.97;;;2.93;;
11054;SDS011;5580;50.106;8.702;2023-09-18T11:59:15;7.10;;;3.23;;
11054;SDS011;5580;50.106;8.702;2023-09-18T12:01:42;3.90;;;2.80;;
11054;SDS011;5580;50.106;8.702;2023-09-18T12:04:11;6.17;;;3.17;;
11054;SDS011;5580;50.106;8.702;2023-09-18T12:06:40;5.43;;;3.10;;
11054;SDS011;5580;50.106;8.702;2023-09-18T12:09:07;6.97;;;3.33;;
11054;SDS011;5580;50.106;8.702;2023-09-18T12:11:33;6.23;;;3.23;;
11054;SDS011;5580;50.106;8.702;2023-09-18T12:14:00;6.57;;;3.30;;
11054;SDS011;5580;50.106;8.702;2023-09-18T12:16:29;9.27;;;3.30;;
11054;SDS011;5580;50.106;8.702;2023-09-18T12:18:55;8.27;;;3.47;;
11054;SDS011;5580;50.106;8.702;2023-09-18T12:21:22;7.17;;;3.40;;
11054;SDS011;5580;50.106;8.702;2023-09-18T12:23:48;6.27;;;3.37;;
11054;SDS011;5580;50.106;8.702;2023-09-18T12:26:15;6.03;;;2.90;;
11054;SDS011;5580;50.106;8.702;2023-09-18T12:28:44;6.80;;;3.13;;
11054;SDS011;5580;50.106;8.702;2023-09-18T12:31:13;8.60;;;3.40;;
11054;SDS011;5580;50.106;8.702;2023-09-18T12:33:40;4.40;;;2.97;;
11054;SDS011;5580;50.106;8.702;2023-09-18T12:36:09;6.17;;;3.60;;
11054;SDS011;5580;50.106;8.702;2023-09-18T12:38:36;7.63;;;2.90;;
11054;SDS011;5580;50.106;8.702;2023-09-18T12:41:03;6.53;;;2.93;;
11054;SDS011;5580;50.106;8.702;2023-09-18T12:43:36;5.63;;;2.70;;
11054;SDS011;5580;50.106;8.702;2023-09-18T12:46:09;8.20;;;3.40;;
11054;SDS011;5580;50.106;8.702;2023-09-18T12:48:39;8.00;;;3.50;;
11054;SDS011;5580;50.106;8.702;2023-09-18T12:51:10;6.90;;;3.00;;
11054;SDS011;5580;50.106;8.702;2023-09-18T12:53:36;6.93;;;3.10;;
11054;SDS011;5580;50.106;8.702;2023-09-18T12:56:12;6.27;;;3.03;;
11054;SDS011;5580;50.106;8.702;2023-09-18T12:58:39;6.70;;;3.90;;
11054;SDS011;5580;50.106;8.702;2023-09-18T13:01:08;10.77;;;4.07;;
11054;SDS011;5580;50.106;8.702;2023-09-18T13:03:46;8.50;;;3.63;;
11054;SDS011;5580;50.106;8.702;2023-09-18T13:06:16;7.90;;;3.30;;
11054;SDS011;5580;50.106;8.702;2023-09-18T13:08:43;7.50;;;3.47;;
11054;SDS011;5580;50.106;8.702;2023-09-18T13:11:09;9.20;;;3.20;;
11054;SDS011;5580;50.106;8.702;2023-09-18T13:13:40;9.33;;;3.60;;
11054;SDS011;5580;50.106;8.702;2023-09-18T13:16:06;11.77;;;3.80;;
11054;SDS011;5580;50.106;8.702;2023-09-18T13:18:36;16.50;;;4.03;;
11054;SDS011;5580;50.106;8.702;2023-09-18T13:21:12;9.20;;;3.97;;
11054;SDS011;5580;50.106;8.702;2023-09-18T13:23:38;8.63;;;3.63;;
11054;SDS011;5580;50.106;8.702;2023-09-18T13:26:05;6.43;;;3.50;;
11054;SDS011;5580;50.106;8.702;2023-09-18T13:28:32;6.67;;;3.50;;
11054;SDS011;5580;50.106;8.702;2023-09-18T13:31:00;10.33;;;4.00;;
11054;SDS011;5580;50.106;8.702;2023-09-18T13:33:33;8.63;;;4.03;;
11054;SDS011;5580;50.106;8.702;2023-09-18T13:36:05;10.37;;;4.40;;
11054;SDS011;5580;50.106;8.702;2023-09-18T13:38:31;9.97;;;4.53;;
11054;SDS011;5580;50.106;8.702;2023-09-18T13:40:57;6.23;;;3.87;;
11054;SDS011;5580;50.106;8.702;2023-09-18T13:43:23;7.27;;;3.80;;
11054;SDS011;5580;50.106;8.702;2023-09-18T13:45:49;9.50;;;3.83;;
11054;SDS011;5580;50.106;8.702;2023-09-18T13:48:18;10.00;;;3.70;;
11054;SDS011;5580;50.106;8.702;2023-09-18T13:50:44;10.60;;;3.77;;
11054;SDS011;5580;50.106;8.702;2023-09-18T13:53:11;10.80;;;4.30;;
11054;SDS011;5580;50.106;8.702;2023-09-18T13:55:37;13.53;;;5.00;;
11054;SDS011;5580;50.106;8.702;2023-09-18T13:58:03;9.83;;;4.30;;
11054;SDS011;5580;50.106;8.702;2023-09-18T14:00:29;8.03;;;4.00;;
11054;SDS011;5580;50.106;8.702;2023-09-18T14:02:55;8.80;;;3.63;;
11054;SDS011;5580;50.106;8.702;2023-09-18T14:05:20;9.20;;;3.97;;
11054;SDS011;5580;50.106;8.702;2023-09-18T14:07:46;9.23;;;3.73;;
11054;SDS011;5580;50.106;8.702;2023-09-18T14:10:12;9.57;;;4.10;;
11054;SDS011;5580;50.106;8.702;2023-09-18T14:12:38;9.53;;;4.00;;
11054;SDS011;5580;50.106;8.702;2023-09-18T14:15:05;9.63;;;3.70;;
11054;SDS011;5580;50.106;8.702;2023-09-18T14:17:32;8.03;;;3.90;;
11054;SDS011;5580;50.106;8.702;2023-09-18T14:19:57;9.07;;;4.00;;
11054;SDS011;5580;50.106;8.702;2023-09-18T14:22:24;8.27;;;3.87;;
11054;SDS011;5580;50.106;8.702;2023-09-18T14:24:50;12.27;;;4.13;;
11054;SDS011;5580;50.106;8.702;2023-09-18T14:27:15;8.63;;;4.07;;
11054;SDS011;5580;50.106;8.702;2023-09-18T14:29:41;5.93;;;3.57;;
11054;SDS011;5580;50.106;8.702;2023-09-18T14:32:06;8.33;;;3.60;;
11054;SDS011;5580;50.106;8.702;2023-09-18T14:34:33;12.93;;;4.33;;
11054;SDS011;5580;50.106;8.702;2023-09-18T14:37:00;8.20;;;4.03;;
11054;SDS011;5580;50.106;8.702;2023-09-18T14:39:29;7.50;;;4.23;;
11054;SDS011;5580;50.106;8.702;2023-09-18T14:41:58;11.93;;;4.43;;
11054;SDS011;5580;50.106;8.702;2023-09-18T14:44:24;10.50;;;4.20;;
11054;SDS011;5580;50.106;8.702;2023-09-18T14:46:50;9.87;;;3.80;;
11054;SDS011;5580;50.106;8.702;2023-09-18T14:49:17;7.80;;;4.00;;
11054;SDS011;5580;50.106;8.702;2023-09-18T14:51:43;8.37;;;4.17;;
11054;SDS011;5580;50.106;8.702;2023-09-18T14:54:08;7.97;;;3.67;;
11054;SDS011;5580;50.106;8.702;2023-09-18T14:56:34;8.87;;;4.13;;
11054;SDS011;5580;50.106;8.702;2023-09-18T14:59:03;7.13;;;3.87;;
11054;SDS011;5580;50.106;8.702;2023-09-18T15:01:31;7.33;;;3.63;;
11054;SDS011;5580;50.106;8.702;2023-09-18T15:03:57;7.57;;;4.20;;
11054;SDS011;5580;50.106;8.702;2023-09-18T15:06:23;8.50;;;4.10;;
11054;SDS011;5580;50.106;8.702;2023-09-18T15:08:49;7.83;;;3.80;;
11054;SDS011;5580;50.106;8.702;2023-09-18T15:11:15;9.63;;;4.10;;
11054;SDS011;5580;50.106;8.702;2023-09-18T15:13:42;10.13;;;4.00;;
11054;SDS011;5580;50.106;8.702;2023-09-18T15:16:08;7.47;;;4.07;;